OSY weather

Namsos Høknesøra Airport
Namsos, Nord-Trøndelag, Norway

Public forecast

Using degrees Celsius for public forecast. Weather courtesy of forecast.io.

Current aviation weather report (METAR) for Namsos Høknesøra Airport

Retrieved 2020/04/02 06:20 UTC (4 minutes ago):

ENNM 020620Z 1609KT 9999 -SHSN FEW025 BKN032 02/M03 Q0977

Closest aviation forecast (TAF) to Namsos Høknesøra Airport

Closest forecast is Trondheim Airport Værnes, 63.3 nm (117.2 km) SSW. Retrieved 2020/04/02 06:00 UTC (24 minutes ago):

TAF ENVA 020500Z 0206/0306 15015KT 9999 -SHRA FEW020TCU BKN035 TEMPO 0206/0221 1200 SHSNGS VV009 BECMG 0209/0212 26018KT TEMPO 0221/0306 30022G35KT 0500 SHSN VV005